sensor_id;sensor_type;location;lat;lon;timestamp;temperature;humidity
68719;DHT22;55696;52.138;5.444;2023-04-08T00:01:41;11.70;74.90
68719;DHT22;55696;52.138;5.444;2023-04-08T00:04:08;11.70;74.90
68719;DHT22;55696;52.138;5.444;2023-04-08T00:06:35;11.90;75.20
68719;DHT22;55696;52.138;5.444;2023-04-08T00:09:03;11.60;75.20
68719;DHT22;55696;52.138;5.444;2023-04-08T00:11:29;11.60;75.50
68719;DHT22;55696;52.138;5.444;2023-04-08T00:13:56;11.60;75.30
68719;DHT22;55696;52.138;5.444;2023-04-08T00:16:23;11.50;75.30
68719;DHT22;55696;52.138;5.444;2023-04-08T00:18:50;11.60;75.30
68719;DHT22;55696;52.138;5.444;2023-04-08T00:21:17;11.60;75.40
68719;DHT22;55696;52.138;5.444;2023-04-08T00:23:46;11.70;75.60
68719;DHT22;55696;52.138;5.444;2023-04-08T00:26:13;11.70;75.70
68719;DHT22;55696;52.138;5.444;2023-04-08T00:28:41;11.80;75.60
68719;DHT22;55696;52.138;5.444;2023-04-08T00:31:08;11.90;75.70
68719;DHT22;55696;52.138;5.444;2023-04-08T00:33:35;11.80;75.20
68719;DHT22;55696;52.138;5.444;2023-04-08T00:36:02;11.80;74.80
68719;DHT22;55696;52.138;5.444;2023-04-08T00:38:29;11.70;75.10
68719;DHT22;55696;52.138;5.444;2023-04-08T00:40:56;11.60;75.40
68719;DHT22;55696;52.138;5.444;2023-04-08T00:43:24;11.60;75.40
68719;DHT22;55696;52.138;5.444;2023-04-08T00:45:50;11.50;75.40
68719;DHT22;55696;52.138;5.444;2023-04-08T00:48:17;11.50;75.50
68719;DHT22;55696;52.138;5.444;2023-04-08T00:50:44;11.40;75.50
68719;DHT22;55696;52.138;5.444;2023-04-08T00:53:18;12.00;76.40
68719;DHT22;55696;52.138;5.444;2023-04-08T00:55:45;11.40;77.60
68719;DHT22;55696;52.138;5.444;2023-04-08T00:58:13;11.40;75.70
68719;DHT22;55696;52.138;5.444;2023-04-08T01:00:44;11.50;76.40
68719;DHT22;55696;52.138;5.444;2023-04-08T01:03:38;11.50;77.10
68719;DHT22;55696;52.138;5.444;2023-04-08T01:09:09;11.30;77.40
68719;DHT22;55696;52.138;5.444;2023-04-08T01:11:41;11.20;77.20
68719;DHT22;55696;52.138;5.444;2023-04-08T01:14:11;11.30;77.80
68719;DHT22;55696;52.138;5.444;2023-04-08T01:16:41;11.20;77.30
68719;DHT22;55696;52.138;5.444;2023-04-08T01:19:16;11.10;76.20
68719;DHT22;55696;52.138;5.444;2023-04-08T01:21:46;11.10;77.70
68719;DHT22;55696;52.138;5.444;2023-04-08T01:24:22;11.10;76.50
68719;DHT22;55696;52.138;5.444;2023-04-08T01:26:53;11.10;78.10
68719;DHT22;55696;52.138;5.444;2023-04-08T01:29:24;11.00;77.20
68719;DHT22;55696;52.138;5.444;2023-04-08T01:31:53;11.10;77.50
68719;DHT22;55696;52.138;5.444;2023-04-08T01:34:21;11.10;77.50
68719;DHT22;55696;52.138;5.444;2023-04-08T01:36:49;11.10;77.00
68719;DHT22;55696;52.138;5.444;2023-04-08T01:39:18;11.20;76.50
68719;DHT22;55696;52.138;5.444;2023-04-08T01:41:47;11.20;77.10
68719;DHT22;55696;52.138;5.444;2023-04-08T01:44:16;11.20;76.70
68719;DHT22;55696;52.138;5.444;2023-04-08T01:46:44;11.20;76.80
68719;DHT22;55696;52.138;5.444;2023-04-08T01:49:11;11.10;76.10
68719;DHT22;55696;52.138;5.444;2023-04-08T01:51:40;11.20;76.40
68719;DHT22;55696;52.138;5.444;2023-04-08T01:54:07;11.10;76.80
68719;DHT22;55696;52.138;5.444;2023-04-08T01:56:36;11.10;76.10
68719;DHT22;55696;52.138;5.444;2023-04-08T01:59:09;10.90;77.30
68719;DHT22;55696;52.138;5.444;2023-04-08T02:01:36;10.90;78.80
68719;DHT22;55696;52.138;5.444;2023-04-08T02:04:04;11.00;76.70
68719;DHT22;55696;52.138;5.444;2023-04-08T02:06:31;11.00;76.10
68719;DHT22;55696;52.138;5.444;2023-04-08T02:08:58;10.90;76.60
68719;DHT22;55696;52.138;5.444;2023-04-08T02:11:26;10.90;76.40
68719;DHT22;55696;52.138;5.444;2023-04-08T02:13:54;10.90;76.20
68719;DHT22;55696;52.138;5.444;2023-04-08T02:16:41;10.80;76.70
68719;DHT22;55696;52.138;5.444;2023-04-08T02:19:17;11.00;78.40
68719;DHT22;55696;52.138;5.444;2023-04-08T02:21:48;10.90;78.20
68719;DHT22;55696;52.138;5.444;2023-04-08T02:24:17;10.90;78.00
68719;DHT22;55696;52.138;5.444;2023-04-08T02:26:44;10.90;77.20
68719;DHT22;55696;52.138;5.444;2023-04-08T02:29:14;11.00;76.70
68719;DHT22;55696;52.138;5.444;2023-04-08T02:31:42;11.00;77.60
68719;DHT22;55696;52.138;5.444;2023-04-08T02:34:10;11.00;77.10
68719;DHT22;55696;52.138;5.444;2023-04-08T02:36:37;11.00;76.70
68719;DHT22;55696;52.138;5.444;2023-04-08T02:39:06;10.80;76.60
68719;DHT22;55696;52.138;5.444;2023-04-08T02:41:33;10.70;76.20
68719;DHT22;55696;52.138;5.444;2023-04-08T02:44:00;10.60;76.30
68719;DHT22;55696;52.138;5.444;2023-04-08T02:46:26;10.60;76.60
68719;DHT22;55696;52.138;5.444;2023-04-08T02:48:53;10.50;76.80
68719;DHT22;55696;52.138;5.444;2023-04-08T02:51:20;10.60;77.10
68719;DHT22;55696;52.138;5.444;2023-04-08T02:53:47;10.60;76.90
68719;DHT22;55696;52.138;5.444;2023-04-08T02:56:13;10.70;76.80
68719;DHT22;55696;52.138;5.444;2023-04-08T02:58:40;10.80;76.70
68719;DHT22;55696;52.138;5.444;2023-04-08T03:01:07;10.80;76.50
68719;DHT22;55696;52.138;5.444;2023-04-08T03:03:34;10.90;77.10
68719;DHT22;55696;52.138;5.444;2023-04-08T03:06:02;10.90;75.90
68719;DHT22;55696;52.138;5.444;2023-04-08T03:08:29;10.80;75.90
68719;DHT22;55696;52.138;5.444;2023-04-08T03:10:55;10.70;75.80
68719;DHT22;55696;52.138;5.444;2023-04-08T03:13:22;10.60;76.00
68719;DHT22;55696;52.138;5.444;2023-04-08T03:15:49;10.60;76.20
68719;DHT22;55696;52.138;5.444;2023-04-08T03:18:15;10.60;76.10
68719;DHT22;55696;52.138;5.444;2023-04-08T03:20:43;10.50;76.10
68719;DHT22;55696;52.138;5.444;2023-04-08T03:23:10;10.40;76.30
68719;DHT22;55696;52.138;5.444;2023-04-08T03:25:36;10.40;76.40
68719;DHT22;55696;52.138;5.444;2023-04-08T03:28:03;10.40;76.40
68719;DHT22;55696;52.138;5.444;2023-04-08T03:30:30;10.40;76.40
68719;DHT22;55696;52.138;5.444;2023-04-08T03:32:57;10.40;76.60
68719;DHT22;55696;52.138;5.444;2023-04-08T03:35:24;10.30;76.40
68719;DHT22;55696;52.138;5.444;2023-04-08T03:37:51;10.40;76.30
68719;DHT22;55696;52.138;5.444;2023-04-08T03:40:18;10.40;77.30
68719;DHT22;55696;52.138;5.444;2023-04-08T03:42:45;10.40;76.50
68719;DHT22;55696;52.138;5.444;2023-04-08T03:45:12;10.40;76.60
68719;DHT22;55696;52.138;5.444;2023-04-08T03:47:38;10.40;76.70
68719;DHT22;55696;52.138;5.444;2023-04-08T03:50:06;10.40;76.60
68719;DHT22;55696;52.138;5.444;2023-04-08T03:52:32;10.40;77.10
68719;DHT22;55696;52.138;5.444;2023-04-08T03:54:59;10.40;76.80
68719;DHT22;55696;52.138;5.444;2023-04-08T03:57:26;10.50;76.60
68719;DHT22;55696;52.138;5.444;2023-04-08T03:59:53;10.50;76.50
68719;DHT22;55696;52.138;5.444;2023-04-08T04:02:19;10.70;76.40
68719;DHT22;55696;52.138;5.444;2023-04-08T04:04:46;10.60;75.70
68719;DHT22;55696;52.138;5.444;2023-04-08T04:07:13;10.50;75.80
68719;DHT22;55696;52.138;5.444;2023-04-08T04:09:40;10.50;75.70
68719;DHT22;55696;52.138;5.444;2023-04-08T04:12:06;10.50;76.00
68719;DHT22;55696;52.138;5.444;2023-04-08T04:14:33;10.50;76.00
68719;DHT22;55696;52.138;5.444;2023-04-08T04:17:00;10.50;75.90
68719;DHT22;55696;52.138;5.444;2023-04-08T04:19:29;10.50;75.70
68719;DHT22;55696;52.138;5.444;2023-04-08T04:21:57;10.30;76.90
68719;DHT22;55696;52.138;5.444;2023-04-08T04:24:23;10.10;75.30
68719;DHT22;55696;52.138;5.444;2023-04-08T04:26:50;10.40;75.40
68719;DHT22;55696;52.138;5.444;2023-04-08T04:29:17;10.40;75.10
68719;DHT22;55696;52.138;5.444;2023-04-08T04:31:43;10.30;74.90
68719;DHT22;55696;52.138;5.444;2023-04-08T04:34:10;10.10;74.90
68719;DHT22;55696;52.138;5.444;2023-04-08T04:36:37;10.10;75.10
68719;DHT22;55696;52.138;5.444;2023-04-08T04:39:04;10.00;74.80
68719;DHT22;55696;52.138;5.444;2023-04-08T04:41:31;9.80;75.00
68719;DHT22;55696;52.138;5.444;2023-04-08T04:43:57;9.80;74.80
68719;DHT22;55696;52.138;5.444;2023-04-08T04:46:24;9.70;75.00
68719;DHT22;55696;52.138;5.444;2023-04-08T04:48:51;9.60;75.00
68719;DHT22;55696;52.138;5.444;2023-04-08T04:51:18;9.50;75.00
68719;DHT22;55696;52.138;5.444;2023-04-08T04:53:45;9.40;74.80
68719;DHT22;55696;52.138;5.444;2023-04-08T04:56:12;9.40;75.20
68719;DHT22;55696;52.138;5.444;2023-04-08T04:58:38;9.30;75.40
68719;DHT22;55696;52.138;5.444;2023-04-08T05:01:05;9.20;75.40
68719;DHT22;55696;52.138;5.444;2023-04-08T05:03:32;9.10;75.30
68719;DHT22;55696;52.138;5.444;2023-04-08T05:05:58;9.10;75.30
68719;DHT22;55696;52.138;5.444;2023-04-08T05:08:26;8.90;75.30
68719;DHT22;55696;52.138;5.444;2023-04-08T05:10:53;8.90;75.70
68719;DHT22;55696;52.138;5.444;2023-04-08T05:13:21;8.80;75.60
68719;DHT22;55696;52.138;5.444;2023-04-08T05:15:48;8.80;75.70
68719;DHT22;55696;52.138;5.444;2023-04-08T05:18:14;8.70;75.70
68719;DHT22;55696;52.138;5.444;2023-04-08T05:20:41;8.70;75.70
68719;DHT22;55696;52.138;5.444;2023-04-08T05:23:08;8.70;75.80
68719;DHT22;55696;52.138;5.444;2023-04-08T05:25:35;8.70;76.10
68719;DHT22;55696;52.138;5.444;2023-04-08T05:28:02;8.70;75.90
68719;DHT22;55696;52.138;5.444;2023-04-08T05:30:29;8.70;76.20
68719;DHT22;55696;52.138;5.444;2023-04-08T05:32:56;8.70;75.90
68719;DHT22;55696;52.138;5.444;2023-04-08T05:35:26;8.70;75.80
68719;DHT22;55696;52.138;5.444;2023-04-08T05:37:53;8.60;75.80
68719;DHT22;55696;52.138;5.444;2023-04-08T05:40:20;8.60;76.00
68719;DHT22;55696;52.138;5.444;2023-04-08T05:42:47;8.60;75.60
68719;DHT22;55696;52.138;5.444;2023-04-08T05:45:13;8.50;75.40
68719;DHT22;55696;52.138;5.444;2023-04-08T05:47:41;8.40;75.40
68719;DHT22;55696;52.138;5.444;2023-04-08T05:50:08;8.40;75.70
68719;DHT22;55696;52.138;5.444;2023-04-08T05:52:35;8.50;76.20
68719;DHT22;55696;52.138;5.444;2023-04-08T05:55:02;8.60;75.80
68719;DHT22;55696;52.138;5.444;2023-04-08T05:57:28;8.70;75.60
68719;DHT22;55696;52.138;5.444;2023-04-08T05:59:55;8.70;75.40
68719;DHT22;55696;52.138;5.444;2023-04-08T06:02:22;8.70;75.10
68719;DHT22;55696;52.138;5.444;2023-04-08T06:04:49;8.80;75.00
68719;DHT22;55696;52.138;5.444;2023-04-08T06:07:16;8.90;75.00
68719;DHT22;55696;52.138;5.444;2023-04-08T06:09:42;9.00;74.80
68719;DHT22;55696;52.138;5.444;2023-04-08T06:12:10;9.10;74.60
68719;DHT22;55696;52.138;5.444;2023-04-08T06:14:38;9.20;74.20
68719;DHT22;55696;52.138;5.444;2023-04-08T06:17:05;9.30;73.80
68719;DHT22;55696;52.138;5.444;2023-04-08T06:19:31;9.20;73.60
68719;DHT22;55696;52.138;5.444;2023-04-08T06:21:58;9.20;73.40
68719;DHT22;55696;52.138;5.444;2023-04-08T06:24:26;9.10;73.20
68719;DHT22;55696;52.138;5.444;2023-04-08T06:26:53;9.10;74.30
68719;DHT22;55696;52.138;5.444;2023-04-08T06:29:21;9.00;73.50
68719;DHT22;55696;52.138;5.444;2023-04-08T06:31:48;9.10;74.10
68719;DHT22;55696;52.138;5.444;2023-04-08T06:34:15;9.10;73.90
68719;DHT22;55696;52.138;5.444;2023-04-08T06:36:42;9.10;73.50
68719;DHT22;55696;52.138;5.444;2023-04-08T06:39:09;9.00;72.70
68719;DHT22;55696;52.138;5.444;2023-04-08T06:41:36;9.00;72.80
68719;DHT22;55696;52.138;5.444;2023-04-08T06:44:16;9.00;73.10
68719;DHT22;55696;52.138;5.444;2023-04-08T06:46:43;9.10;73.10
68719;DHT22;55696;52.138;5.444;2023-04-08T06:49:11;10.30;73.40
68719;DHT22;55696;52.138;5.444;2023-04-08T06:51:38;9.40;73.50
68719;DHT22;55696;52.138;5.444;2023-04-08T06:54:04;9.40;71.90
68719;DHT22;55696;52.138;5.444;2023-04-08T06:56:31;9.40;71.80
68719;DHT22;55696;52.138;5.444;2023-04-08T06:58:58;9.40;71.50
68719;DHT22;55696;52.138;5.444;2023-04-08T07:01:24;9.40;71.40
68719;DHT22;55696;52.138;5.444;2023-04-08T07:03:51;9.40;71.20
68719;DHT22;55696;52.138;5.444;2023-04-08T07:06:18;9.50;71.10
68719;DHT22;55696;52.138;5.444;2023-04-08T07:08:45;9.50;71.10
68719;DHT22;55696;52.138;5.444;2023-04-08T07:11:12;9.60;71.10
68719;DHT22;55696;52.138;5.444;2023-04-08T07:13:39;9.70;70.90
68719;DHT22;55696;52.138;5.444;2023-04-08T07:16:05;9.70;70.80
68719;DHT22;55696;52.138;5.444;2023-04-08T07:18:32;9.80;71.10
68719;DHT22;55696;52.138;5.444;2023-04-08T07:20:59;9.90;70.90
68719;DHT22;55696;52.138;5.444;2023-04-08T07:23:26;10.00;70.40
68719;DHT22;55696;52.138;5.444;2023-04-08T07:25:53;10.20;70.30
68719;DHT22;55696;52.138;5.444;2023-04-08T07:28:20;10.30;69.70
68719;DHT22;55696;52.138;5.444;2023-04-08T07:30:46;10.20;70.40
68719;DHT22;55696;52.138;5.444;2023-04-08T07:33:13;10.40;69.50
68719;DHT22;55696;52.138;5.444;2023-04-08T07:35:41;10.40;69.60
68719;DHT22;55696;52.138;5.444;2023-04-08T07:38:08;10.50;69.60
68719;DHT22;55696;52.138;5.444;2023-04-08T07:40:37;10.60;69.20
68719;DHT22;55696;52.138;5.444;2023-04-08T07:43:03;10.70;69.00
68719;DHT22;55696;52.138;5.444;2023-04-08T07:45:30;10.70;68.90
68719;DHT22;55696;52.138;5.444;2023-04-08T07:47:57;10.80;68.50
68719;DHT22;55696;52.138;5.444;2023-04-08T07:50:23;10.80;68.50
68719;DHT22;55696;52.138;5.444;2023-04-08T07:52:50;11.70;68.60
68719;DHT22;55696;52.138;5.444;2023-04-08T07:55:18;11.70;68.30
68719;DHT22;55696;52.138;5.444;2023-04-08T07:57:46;11.10;67.70
68719;DHT22;55696;52.138;5.444;2023-04-08T08:00:13;11.20;67.20
68719;DHT22;55696;52.138;5.444;2023-04-08T08:02:46;11.20;67.80
68719;DHT22;55696;52.138;5.444;2023-04-08T08:05:14;11.20;68.00
68719;DHT22;55696;52.138;5.444;2023-04-08T08:07:41;9.80;66.60
68719;DHT22;55696;52.138;5.444;2023-04-08T08:10:08;11.30;68.40
68719;DHT22;55696;52.138;5.444;2023-04-08T08:12:36;11.40;67.70
68719;DHT22;55696;52.138;5.444;2023-04-08T08:15:03;11.30;67.00
68719;DHT22;55696;52.138;5.444;2023-04-08T08:17:30;11.40;67.40
68719;DHT22;55696;52.138;5.444;2023-04-08T08:19:59;11.50;67.00
68719;DHT22;55696;52.138;5.444;2023-04-08T08:22:26;11.50;67.40
68719;DHT22;55696;52.138;5.444;2023-04-08T08:24:56;11.60;67.50
68719;DHT22;55696;52.138;5.444;2023-04-08T08:27:23;11.60;68.10
68719;DHT22;55696;52.138;5.444;2023-04-08T08:29:50;11.80;66.40
68719;DHT22;55696;52.138;5.444;2023-04-08T08:32:18;11.90;66.50
68719;DHT22;55696;52.138;5.444;2023-04-08T08:34:44;11.90;66.60
68719;DHT22;55696;52.138;5.444;2023-04-08T08:37:11;11.90;65.80
68719;DHT22;55696;52.138;5.444;2023-04-08T08:39:38;11.90;65.50
68719;DHT22;55696;52.138;5.444;2023-04-08T08:42:05;11.90;65.50
68719;DHT22;55696;52.138;5.444;2023-04-08T08:44:31;11.80;65.40
68719;DHT22;55696;52.138;5.444;2023-04-08T08:46:59;12.00;65.60
68719;DHT22;55696;52.138;5.444;2023-04-08T08:49:26;12.10;66.30
68719;DHT22;55696;52.138;5.444;2023-04-08T08:51:53;12.20;65.30
68719;DHT22;55696;52.138;5.444;2023-04-08T08:54:20;12.20;66.00
68719;DHT22;55696;52.138;5.444;2023-04-08T08:56:47;12.40;65.80
68719;DHT22;55696;52.138;5.444;2023-04-08T08:59:14;12.60;64.70
68719;DHT22;55696;52.138;5.444;2023-04-08T09:01:41;12.80;64.40
68719;DHT22;55696;52.138;5.444;2023-04-08T09:04:18;12.80;64.20
68719;DHT22;55696;52.138;5.444;2023-04-08T09:06:47;13.70;66.60
68719;DHT22;55696;52.138;5.444;2023-04-08T09:09:16;13.00;63.60
68719;DHT22;55696;52.138;5.444;2023-04-08T09:11:45;12.80;63.30
68719;DHT22;55696;52.138;5.444;2023-04-08T09:14:22;12.80;64.30
68719;DHT22;55696;52.138;5.444;2023-04-08T09:16:50;12.70;65.40
68719;DHT22;55696;52.138;5.444;2023-04-08T09:19:18;12.80;63.40
68719;DHT22;55696;52.138;5.444;2023-04-08T09:21:44;12.90;63.20
68719;DHT22;55696;52.138;5.444;2023-04-08T09:24:27;12.60;62.40
68719;DHT22;55696;52.138;5.444;2023-04-08T09:26:54;12.70;64.80
68719;DHT22;55696;52.138;5.444;2023-04-08T09:29:25;13.10;63.10
68719;DHT22;55696;52.138;5.444;2023-04-08T09:31:59;12.80;64.40
68719;DHT22;55696;52.138;5.444;2023-04-08T09:34:27;12.90;63.60
68719;DHT22;55696;52.138;5.444;2023-04-08T09:36:54;12.90;63.70
68719;DHT22;55696;52.138;5.444;2023-04-08T09:39:22;13.10;62.70
68719;DHT22;55696;52.138;5.444;2023-04-08T09:41:50;13.10;62.00
68719;DHT22;55696;52.138;5.444;2023-04-08T09:44:19;13.20;62.70
68719;DHT22;55696;52.138;5.444;2023-04-08T09:49:37;13.60;63.30
68719;DHT22;55696;52.138;5.444;2023-04-08T09:52:10;13.70;62.60
68719;DHT22;55696;52.138;5.444;2023-04-08T09:54:54;13.70;62.40
68719;DHT22;55696;52.138;5.444;2023-04-08T09:57:30;13.70;62.00
68719;DHT22;55696;52.138;5.444;2023-04-08T10:00:17;13.80;62.30
68719;DHT22;55696;52.138;5.444;2023-04-08T10:05:20;13.90;61.30
68719;DHT22;55696;52.138;5.444;2023-04-08T10:07:47;13.70;60.20
68719;DHT22;55696;52.138;5.444;2023-04-08T10:10:16;15.10;60.70
68719;DHT22;55696;52.138;5.444;2023-04-08T10:12:43;14.00;59.70
68719;DHT22;55696;52.138;5.444;2023-04-08T10:15:32;14.10;58.70
68719;DHT22;55696;52.138;5.444;2023-04-08T10:23:06;14.10;60.80
68719;DHT22;55696;52.138;5.444;2023-04-08T10:25:37;14.30;59.90
68719;DHT22;55696;52.138;5.444;2023-04-08T10:30:40;14.50;59.60
68719;DHT22;55696;52.138;5.444;2023-04-08T10:33:30;14.60;58.40
68719;DHT22;55696;52.138;5.444;2023-04-08T10:36:07;14.80;57.70
68719;DHT22;55696;52.138;5.444;2023-04-08T10:38:38;14.70;56.60
68719;DHT22;55696;52.138;5.444;2023-04-08T10:41:05;14.80;55.60
68719;DHT22;55696;52.138;5.444;2023-04-08T10:43:35;15.10;54.80
68719;DHT22;55696;52.138;5.444;2023-04-08T10:46:02;15.00;56.20
68719;DHT22;55696;52.138;5.444;2023-04-08T10:48:30;15.00;55.40
68719;DHT22;55696;52.138;5.444;2023-04-08T10:51:00;15.00;54.90
68719;DHT22;55696;52.138;5.444;2023-04-08T10:53:35;15.10;56.60
68719;DHT22;55696;52.138;5.444;2023-04-08T10:56:07;15.10;56.50
68719;DHT22;55696;52.138;5.444;2023-04-08T10:58:34;15.20;56.40
68719;DHT22;55696;52.138;5.444;2023-04-08T11:01:06;15.20;55.60
68719;DHT22;55696;52.138;5.444;2023-04-08T11:03:34;15.20;56.30
68719;DHT22;55696;52.138;5.444;2023-04-08T11:06:02;15.30;54.90
68719;DHT22;55696;52.138;5.444;2023-04-08T11:08:30;15.30;54.80
68719;DHT22;55696;52.138;5.444;2023-04-08T11:11:01;15.30;54.10
68719;DHT22;55696;52.138;5.444;2023-04-08T11:13:28;15.30;53.80
68719;DHT22;55696;52.138;5.444;2023-04-08T11:15:56;15.40;52.90
68719;DHT22;55696;52.138;5.444;2023-04-08T11:18:24;15.50;53.80
68719;DHT22;55696;52.138;5.444;2023-04-08T11:20:52;15.70;52.90
68719;DHT22;55696;52.138;5.444;2023-04-08T11:23:19;15.70;52.00
68719;DHT22;55696;52.138;5.444;2023-04-08T11:25:46;15.70;52.00
68719;DHT22;55696;52.138;5.444;2023-04-08T11:28:13;16.00;51.40
68719;DHT22;55696;52.138;5.444;2023-04-08T11:30:40;16.10;49.20
68719;DHT22;55696;52.138;5.444;2023-04-08T11:33:08;16.20;49.20
68719;DHT22;55696;52.138;5.444;2023-04-08T11:35:44;16.50;49.40
68719;DHT22;55696;52.138;5.444;2023-04-08T11:38:11;16.80;50.80
68719;DHT22;55696;52.138;5.444;2023-04-08T11:40:38;17.00;48.50
68719;DHT22;55696;52.138;5.444;2023-04-08T11:43:12;18.00;47.40
68719;DHT22;55696;52.138;5.444;2023-04-08T11:45:41;17.40;48.60
68719;DHT22;55696;52.138;5.444;2023-04-08T11:48:09;17.40;45.90
68719;DHT22;55696;52.138;5.444;2023-04-08T11:50:37;17.50;46.10
68719;DHT22;55696;52.138;5.444;2023-04-08T11:53:03;18.20;44.90
68719;DHT22;55696;52.138;5.444;2023-04-08T11:55:31;17.30;44.20
68719;DHT22;55696;52.138;5.444;2023-04-08T11:58:03;17.40;44.40
68719;DHT22;55696;52.138;5.444;2023-04-08T12:00:30;17.10;44.40
68719;DHT22;55696;52.138;5.444;2023-04-08T12:02:58;17.10;43.20
68719;DHT22;55696;52.138;5.444;2023-04-08T12:05:25;17.00;42.60
68719;DHT22;55696;52.138;5.444;2023-04-08T12:07:52;16.90;41.80
68719;DHT22;55696;52.138;5.444;2023-04-08T12:10:19;17.00;42.70
68719;DHT22;55696;52.138;5.444;2023-04-08T12:12:46;17.20;43.00
68719;DHT22;55696;52.138;5.444;2023-04-08T12:15:12;17.30;41.00
68719;DHT22;55696;52.138;5.444;2023-04-08T12:17:39;17.40;41.50
68719;DHT22;55696;52.138;5.444;2023-04-08T12:20:06;17.50;40.80
68719;DHT22;55696;52.138;5.444;2023-04-08T12:22:33;17.70;40.60
68719;DHT22;55696;52.138;5.444;2023-04-08T12:25:00;17.50;39.80
68719;DHT22;55696;52.138;5.444;2023-04-08T12:27:32;17.70;39.70
68719;DHT22;55696;52.138;5.444;2023-04-08T12:29:59;17.80;40.30
68719;DHT22;55696;52.138;5.444;2023-04-08T12:32:26;18.10;38.30
68719;DHT22;55696;52.138;5.444;2023-04-08T12:34:53;18.40;37.30
68719;DHT22;55696;52.138;5.444;2023-04-08T12:37:21;18.50;36.20
68719;DHT22;55696;52.138;5.444;2023-04-08T12:39:48;18.30;34.90
68719;DHT22;55696;52.138;5.444;2023-04-08T12:42:15;18.20;34.40
68719;DHT22;55696;52.138;5.444;2023-04-08T12:44:42;18.10;34.60
68719;DHT22;55696;52.138;5.444;2023-04-08T12:47:08;18.30;35.50
68719;DHT22;55696;52.138;5.444;2023-04-08T12:49:35;17.90;35.50
68719;DHT22;55696;52.138;5.444;2023-04-08T12:52:15;18.30;36.80
68719;DHT22;55696;52.138;5.444;2023-04-08T12:54:41;17.60;36.80
68719;DHT22;55696;52.138;5.444;2023-04-08T12:57:08;17.90;37.10
68719;DHT22;55696;52.138;5.444;2023-04-08T12:59:35;17.80;37.40
68719;DHT22;55696;52.138;5.444;2023-04-08T13:02:03;17.90;37.90
68719;DHT22;55696;52.138;5.444;2023-04-08T13:04:30;17.90;38.00
68719;DHT22;55696;52.138;5.444;2023-04-08T13:06:57;18.30;38.00
68719;DHT22;55696;52.138;5.444;2023-04-08T13:09:25;16.80;37.10
68719;DHT22;55696;52.138;5.444;2023-04-08T13:11:51;17.70;38.70
68719;DHT22;55696;52.138;5.444;2023-04-08T13:14:18;17.80;39.50
68719;DHT22;55696;52.138;5.444;2023-04-08T13:16:45;17.80;39.40
68719;DHT22;55696;52.138;5.444;2023-04-08T13:19:12;17.80;38.90
68719;DHT22;55696;52.138;5.444;2023-04-08T13:21:39;17.80;39.70
68719;DHT22;55696;52.138;5.444;2023-04-08T13:24:06;17.90;39.80
68719;DHT22;55696;52.138;5.444;2023-04-08T13:26:32;18.30;38.80
68719;DHT22;55696;52.138;5.444;2023-04-08T13:28:59;18.60;38.60
68719;DHT22;55696;52.138;5.444;2023-04-08T13:31:27;18.90;39.10
68719;DHT22;55696;52.138;5.444;2023-04-08T13:33:53;19.20;37.70
68719;DHT22;55696;52.138;5.444;2023-04-08T13:36:23;19.20;38.10
68719;DHT22;55696;52.138;5.444;2023-04-08T13:38:51;19.60;38.30
68719;DHT22;55696;52.138;5.444;2023-04-08T13:41:19;19.60;38.30
68719;DHT22;55696;52.138;5.444;2023-04-08T13:43:46;19.40;39.20
68719;DHT22;55696;52.138;5.444;2023-04-08T13:46:13;19.20;38.10
68719;DHT22;55696;52.138;5.444;2023-04-08T13:48:40;19.00;37.60
68719;DHT22;55696;52.138;5.444;2023-04-08T13:51:07;18.90;37.40
68719;DHT22;55696;52.138;5.444;2023-04-08T13:53:34;18.80;38.10
68719;DHT22;55696;52.138;5.444;2023-04-08T13:56:00;18.80;39.30
68719;DHT22;55696;52.138;5.444;2023-04-08T13:58:27;18.80;38.90
68719;DHT22;55696;52.138;5.444;2023-04-08T14:00:54;18.60;38.70
68719;DHT22;55696;52.138;5.444;2023-04-08T14:03:21;18.60;38.90
68719;DHT22;55696;52.138;5.444;2023-04-08T14:05:48;18.90;39.00
68719;DHT22;55696;52.138;5.444;2023-04-08T14:08:16;19.30;38.80
68719;DHT22;55696;52.138;5.444;2023-04-08T14:10:50;19.20;39.30
68719;DHT22;55696;52.138;5.444;2023-04-08T14:13:17;19.80;39.40
68719;DHT22;55696;52.138;5.444;2023-04-08T14:15:44;20.20;38.60
68719;DHT22;55696;52.138;5.444;2023-04-08T14:18:12;20.20;36.80
68719;DHT22;55696;52.138;5.444;2023-04-08T14:20:39;20.70;37.80
68719;DHT22;55696;52.138;5.444;2023-04-08T14:23:05;20.40;37.60
68719;DHT22;55696;52.138;5.444;2023-04-08T14:25:32;20.40;37.00
68719;DHT22;55696;52.138;5.444;2023-04-08T14:27:59;20.40;36.80
68719;DHT22;55696;52.138;5.444;2023-04-08T14:30:26;20.20;36.00
68719;DHT22;55696;52.138;5.444;2023-04-08T14:32:53;20.40;34.70
68719;DHT22;55696;52.138;5.444;2023-04-08T14:35:20;19.80;35.00
68719;DHT22;55696;52.138;5.444;2023-04-08T14:37:47;19.70;36.30
68719;DHT22;55696;52.138;5.444;2023-04-08T14:40:14;19.70;35.60
68719;DHT22;55696;52.138;5.444;2023-04-08T14:42:40;19.70;35.80
68719;DHT22;55696;52.138;5.444;2023-04-08T14:45:08;19.80;36.20
68719;DHT22;55696;52.138;5.444;2023-04-08T14:47:34;20.00;36.60
68719;DHT22;55696;52.138;5.444;2023-04-08T14:50:01;20.00;36.80
68719;DHT22;55696;52.138;5.444;2023-04-08T14:52:28;19.90;37.40
68719;DHT22;55696;52.138;5.444;2023-04-08T14:54:55;19.80;36.70
68719;DHT22;55696;52.138;5.444;2023-04-08T14:57:21;19.90;37.40
68719;DHT22;55696;52.138;5.444;2023-04-08T14:59:48;19.80;37.80
68719;DHT22;55696;52.138;5.444;2023-04-08T15:02:15;19.90;37.70
68719;DHT22;55696;52.138;5.444;2023-04-08T15:04:42;20.20;38.10
68719;DHT22;55696;52.138;5.444;2023-04-08T15:07:09;20.60;37.10
68719;DHT22;55696;52.138;5.444;2023-04-08T15:09:35;20.90;37.30
68719;DHT22;55696;52.138;5.444;2023-04-08T15:12:02;21.10;37.50
68719;DHT22;55696;52.138;5.444;2023-04-08T15:14:30;21.30;37.10
68719;DHT22;55696;52.138;5.444;2023-04-08T15:16:57;21.30;36.20
68719;DHT22;55696;52.138;5.444;2023-04-08T15:19:24;21.10;36.00
68719;DHT22;55696;52.138;5.444;2023-04-08T15:21:51;21.10;35.70
68719;DHT22;55696;52.138;5.444;2023-04-08T15:24:17;20.80;36.60
68719;DHT22;55696;52.138;5.444;2023-04-08T15:26:45;20.90;37.30
68719;DHT22;55696;52.138;5.444;2023-04-08T15:29:11;21.20;37.90
68719;DHT22;55696;52.138;5.444;2023-04-08T15:31:38;20.90;36.60
68719;DHT22;55696;52.138;5.444;2023-04-08T15:34:05;20.60;36.40
68719;DHT22;55696;52.138;5.444;2023-04-08T15:36:32;20.20;36.90
68719;DHT22;55696;52.138;5.444;2023-04-08T15:39:01;19.90;37.50
68719;DHT22;55696;52.138;5.444;2023-04-08T15:41:28;19.50;37.80
68719;DHT22;55696;52.138;5.444;2023-04-08T15:43:55;19.30;38.20
68719;DHT22;55696;52.138;5.444;2023-04-08T15:46:22;19.30;39.30
68719;DHT22;55696;52.138;5.444;2023-04-08T15:48:49;19.20;39.50
68719;DHT22;55696;52.138;5.444;2023-04-08T15:51:16;19.10;39.20
68719;DHT22;55696;52.138;5.444;2023-04-08T15:53:43;18.90;39.40